createdAt,value
2018-02-10T00:02:16.231Z,67.06
2018-02-10T00:04:44.597Z,67.98
2018-02-10T00:07:12.999Z,68.68
2018-02-10T00:09:41.403Z,65.06
2018-02-10T00:12:09.830Z,67.60
2018-02-10T00:14:38.247Z,67.07
2018-02-10T00:17:06.739Z,68.02
2018-02-10T00:19:35.133Z,65.67
2018-02-10T00:22:03.536Z,67.18
2018-02-10T00:24:31.925Z,66.74
2018-02-10T00:27:00.313Z,66.09
2018-02-10T00:29:28.774Z,67.30
2018-02-10T00:31:57.191Z,68.86
2018-02-10T00:34:25.584Z,70.29
2018-02-10T00:36:54.000Z,70.98
2018-02-10T00:39:22.473Z,69.52
2018-02-10T00:41:50.965Z,70.32
2018-02-10T00:44:19.389Z,69.92
2018-02-10T00:46:47.840Z,67.97
2018-02-10T00:49:16.207Z,69.62
2018-02-10T00:51:44.681Z,65.66
2018-02-10T00:54:13.069Z,67.73
2018-02-10T00:56:41.486Z,66.69
2018-02-10T00:59:09.873Z,67.85
2018-02-10T01:01:38.362Z,66.37
2018-02-10T01:04:06.739Z,65.92
2018-02-10T01:06:35.163Z,63.44
2018-02-10T01:09:03.568Z,64.05
2018-02-10T01:11:31.980Z,59.56
2018-02-10T01:14:00.393Z,57.85
2018-02-10T01:16:28.860Z,59.09
2018-02-10T01:18:57.293Z,60.74
2018-02-10T01:21:25.701Z,58.17
2018-02-10T01:23:54.268Z,59.82
2018-02-10T01:26:22.663Z,58.71
2018-02-10T01:28:51.068Z,62.70
2018-02-10T01:31:19.470Z,60.43
2018-02-10T01:33:47.850Z,58.40
2018-02-10T01:36:16.377Z,61.34
2018-02-10T01:38:44.770Z,59.27
2018-02-10T01:41:13.157Z,61.36
2018-02-10T01:43:41.551Z,62.13
2018-02-10T01:46:09.942Z,61.82
2018-02-10T01:48:38.430Z,60.93
2018-02-10T01:51:06.829Z,60.90
2018-02-10T01:53:35.238Z,59.86
2018-02-10T01:56:03.728Z,57.66
2018-02-10T01:58:32.194Z,59.97
2018-02-10T02:01:00.606Z,59.10
2018-02-10T02:03:29.003Z,58.25
2018-02-10T02:05:57.422Z,58.67
2018-02-10T02:08:25.826Z,57.63
2018-02-10T02:10:54.312Z,56.98
2018-02-10T02:13:22.705Z,57.14
2018-02-10T02:15:51.113Z,57.32
2018-02-10T02:18:19.532Z,56.22
2018-02-10T02:20:48.103Z,55.66
2018-02-10T02:23:16.481Z,57.48
2018-02-10T02:25:44.873Z,58.47
2018-02-10T02:28:13.248Z,58.51
2018-02-10T02:30:41.615Z,56.59
2018-02-10T02:33:10.168Z,57.02
2018-02-10T02:35:38.563Z,56.20
2018-02-10T02:38:06.971Z,55.94
2018-02-10T02:40:35.365Z,55.88
2018-02-10T02:43:03.835Z,56.56
2018-02-10T02:45:32.250Z,55.34
2018-02-10T02:48:00.719Z,55.71
2018-02-10T02:50:29.187Z,55.12
2018-02-10T02:52:57.564Z,56.10
2018-02-10T02:55:26.158Z,55.63
2018-02-10T02:57:54.593Z,57.86
2018-02-10T03:00:22.960Z,58.04
2018-02-10T03:02:51.409Z,59.69
2018-02-10T03:05:19.806Z,57.98
2018-02-10T03:07:48.219Z,58.59
2018-02-10T03:10:16.751Z,59.42
2018-02-10T03:12:45.122Z,57.81
2018-02-10T03:15:13.529Z,60.17
2018-02-10T03:17:41.990Z,62.04
2018-02-10T03:20:10.351Z,62.36
2018-02-10T03:22:38.832Z,64.85
2018-02-10T03:25:07.238Z,64.46
2018-02-10T03:27:35.703Z,64.06
2018-02-10T03:30:04.075Z,65.36
2018-02-10T03:32:32.545Z,64.09
2018-02-10T03:35:00.913Z,62.95
2018-02-10T03:37:29.287Z,63.03
2018-02-10T03:39:58.030Z,61.47
2018-02-10T03:42:26.453Z,59.26
2018-02-10T03:44:54.848Z,63.84
2018-02-10T03:47:23.251Z,63.74
2018-02-10T03:49:51.605Z,62.82
2018-02-10T03:52:20.159Z,62.04
2018-02-10T03:54:48.665Z,62.98
2018-02-10T03:57:17.031Z,61.84
2018-02-10T03:59:45.443Z,62.55
2018-02-10T04:02:13.830Z,58.75
2018-02-10T04:04:42.206Z,59.83
2018-02-10T04:07:10.623Z,59.15
2018-02-10T04:09:39.023Z,59.82
2018-02-10T04:12:07.551Z,59.73
2018-02-10T04:14:35.926Z,57.93
2018-02-10T04:17:04.331Z,60.38
2018-02-10T04:19:32.733Z,57.59
2018-02-10T04:22:01.195Z,60.23
2018-02-10T04:24:29.559Z,58.82
2018-02-10T04:26:57.954Z,58.30
2018-02-10T04:29:26.360Z,57.17
2018-02-10T04:31:54.754Z,57.23
2018-02-10T04:34:23.200Z,59.32
2018-02-10T04:36:51.606Z,59.69
2018-02-10T04:39:20.092Z,62.03
2018-02-10T04:41:48.503Z,60.23
2018-02-10T04:44:16.900Z,60.44
2018-02-10T04:46:45.290Z,59.82
2018-02-10T04:49:13.662Z,58.36
2018-02-10T04:51:42.052Z,59.06
2018-02-10T04:54:10.436Z,58.38
2018-02-10T04:56:38.871Z,56.93
2018-02-10T04:59:07.287Z,56.98
2018-02-10T05:01:35.701Z,56.96
2018-02-10T05:04:04.104Z,56.02
2018-02-10T05:06:32.582Z,55.73
2018-02-10T05:09:01.343Z,55.07
2018-02-10T05:11:29.733Z,54.95
2018-02-10T05:13:58.096Z,56.15
2018-02-10T05:16:26.488Z,57.24
2018-02-10T05:18:54.922Z,58.39
2018-02-10T05:21:23.348Z,58.37
2018-02-10T05:23:51.717Z,57.81
2018-02-10T05:26:20.114Z,60.36
2018-02-10T05:28:48.551Z,58.57
2018-02-10T05:31:16.995Z,62.05
2018-02-10T05:33:45.464Z,62.43
2018-02-10T05:36:13.866Z,64.55
2018-02-10T05:38:42.272Z,63.97
2018-02-10T05:41:10.679Z,62.44
2018-02-10T05:43:39.044Z,64.17
2018-02-10T05:46:07.698Z,61.47
2018-02-10T05:48:36.077Z,62.76
2018-02-10T05:51:04.441Z,59.70
2018-02-10T05:53:32.822Z,60.52
2018-02-10T05:56:01.223Z,61.56
2018-02-10T05:58:29.629Z,60.53
2018-02-10T06:00:58.013Z,62.51
2018-02-10T06:03:27.037Z,61.11
2018-02-10T06:05:55.463Z,59.52
2018-02-10T06:08:23.875Z,60.42
2018-02-10T06:10:52.274Z,60.70
2018-02-10T06:13:20.751Z,59.99
2018-02-10T06:15:49.198Z,62.26
2018-02-10T06:18:17.606Z,62.15
2018-02-10T06:20:46.065Z,60.59
2018-02-10T06:23:14.856Z,62.86
2018-02-10T06:25:43.217Z,63.53
2018-02-10T06:28:11.637Z,62.66
2018-02-10T06:30:40.051Z,63.83
2018-02-10T06:33:08.549Z,65.29
2018-02-10T06:35:36.973Z,63.52
2018-02-10T06:38:05.374Z,63.90
2018-02-10T06:40:33.790Z,62.53
2018-02-10T06:43:02.182Z,64.65
2018-02-10T06:45:30.699Z,64.51
2018-02-10T06:47:59.130Z,66.12
2018-02-10T06:50:27.711Z,65.40
2018-02-10T06:52:56.091Z,63.73
2018-02-10T06:55:24.487Z,69.12
2018-02-10T06:57:52.902Z,67.41
2018-02-10T07:00:21.312Z,67.46
2018-02-10T07:02:49.782Z,67.69
2018-02-10T07:05:18.189Z,68.75
2018-02-10T07:07:46.622Z,67.22
2018-02-10T07:10:15.019Z,65.96
2018-02-10T07:12:43.417Z,67.06
2018-02-10T07:15:11.987Z,66.78
2018-02-10T07:17:40.384Z,63.51
2018-02-10T07:20:08.803Z,63.41
2018-02-10T07:22:37.201Z,62.77
2018-02-10T07:25:05.687Z,62.53
2018-02-10T07:27:34.463Z,60.28
2018-02-10T07:30:02.867Z,62.02
2018-02-10T07:32:31.291Z,63.92
2018-02-10T07:34:59.706Z,63.13
2018-02-10T07:37:28.081Z,63.04
2018-02-10T07:39:56.536Z,62.52
2018-02-10T07:42:25.037Z,61.74
2018-02-10T07:44:53.438Z,63.85
2018-02-10T07:47:21.837Z,62.68
2018-02-10T07:49:50.228Z,61.72
2018-02-10T07:52:18.649Z,63.65
2018-02-10T07:54:47.036Z,64.95
2018-02-10T07:57:15.504Z,63.56
2018-02-10T07:59:43.914Z,64.21
2018-02-10T08:02:12.302Z,62.87
2018-02-10T08:04:40.704Z,61.42
2018-02-10T08:07:09.175Z,59.42
2018-02-10T08:09:38.125Z,59.45
2018-02-10T08:12:06.547Z,62.22
2018-02-10T08:14:34.967Z,62.61
2018-02-10T08:17:03.371Z,62.19
2018-02-10T08:19:31.760Z,61.37
2018-02-10T08:22:00.371Z,59.27
2018-02-10T08:24:28.779Z,59.40
2018-02-10T08:26:57.283Z,60.96
2018-02-10T08:29:25.686Z,62.08
2018-02-10T08:31:54.168Z,59.30
2018-02-10T08:34:22.689Z,57.64
2018-02-10T08:36:51.136Z,59.13
2018-02-10T08:39:19.550Z,58.14
2018-02-10T08:41:47.991Z,58.32
2018-02-10T08:44:16.427Z,61.61
2018-02-10T08:46:45.309Z,61.08
2018-02-10T08:49:13.884Z,58.30
2018-02-10T08:51:42.300Z,58.70
2018-02-10T08:54:11.604Z,59.26
2018-02-10T08:56:40.011Z,56.69
2018-02-10T08:59:08.429Z,54.85
2018-02-10T09:01:37.305Z,57.11
2018-02-10T09:04:05.742Z,55.21
2018-02-10T09:06:34.138Z,54.47
2018-02-10T09:09:02.553Z,55.42
2018-02-10T09:11:31.192Z,56.31
2018-02-10T09:13:59.676Z,55.51
2018-02-10T09:16:28.122Z,55.78
2018-02-10T09:18:56.534Z,52.54
2018-02-10T09:21:24.922Z,50.74
2018-02-10T09:23:53.327Z,47.10
2018-02-10T09:26:21.823Z,44.77
2018-02-10T09:28:50.205Z,41.58
2018-02-10T09:31:18.668Z,42.80
2018-02-10T09:33:47.080Z,40.55
2018-02-10T09:36:15.501Z,38.76
2018-02-10T09:38:44.354Z,38.26
2018-02-10T09:41:12.749Z,36.40
2018-02-10T09:43:41.147Z,35.43
2018-02-10T09:46:09.558Z,35.67
2018-02-10T09:48:40.706Z,37.10
2018-02-10T09:51:09.109Z,38.87
2018-02-10T09:53:42.361Z,37.14
2018-02-10T09:56:10.745Z,37.74
2018-02-10T09:58:39.151Z,37.86
2018-02-10T10:01:07.555Z,37.14
2018-02-10T10:03:36.055Z,38.00
2018-02-10T10:06:04.499Z,38.64
2018-02-10T10:08:33.009Z,39.88
2018-02-10T10:11:01.485Z,37.33
2018-02-10T10:13:29.992Z,36.90
2018-02-10T10:15:58.475Z,37.04
2018-02-10T10:18:27.211Z,39.65
2018-02-10T10:20:55.583Z,39.59
2018-02-10T10:23:23.991Z,43.06
2018-02-10T10:25:52.387Z,41.74
2018-02-10T10:28:20.782Z,40.26
2018-02-10T10:30:49.231Z,40.45
2018-02-10T10:33:17.655Z,41.98
2018-02-10T10:35:46.057Z,42.27
2018-02-10T10:38:14.516Z,45.17
2018-02-10T10:40:42.946Z,46.19
2018-02-10T10:43:11.483Z,47.45
2018-02-10T10:45:39.925Z,47.51
2018-02-10T10:48:08.328Z,48.63
2018-02-10T10:50:36.732Z,47.16
2018-02-10T10:53:05.154Z,49.75
2018-02-10T10:55:33.553Z,51.07
2018-02-10T10:58:02.088Z,53.22
2018-02-10T11:00:30.484Z,53.58
2018-02-10T11:02:58.912Z,50.06
2018-02-10T11:05:27.391Z,53.22
2018-02-10T11:07:55.754Z,52.33
2018-02-10T11:10:24.235Z,50.34
2018-02-10T11:12:52.666Z,49.17
2018-02-10T11:15:21.063Z,47.43
2018-02-10T11:17:49.547Z,47.67
2018-02-10T11:20:17.972Z,46.13
2018-02-10T11:22:46.361Z,47.97
2018-02-10T11:25:14.784Z,49.41
2018-02-10T11:27:43.235Z,49.81
2018-02-10T11:30:11.654Z,49.08
2018-02-10T11:32:40.037Z,51.40
2018-02-10T11:35:08.502Z,51.76
2018-02-10T11:37:36.973Z,50.01
2018-02-10T11:40:05.374Z,49.55
2018-02-10T11:42:33.808Z,48.41
2018-02-10T11:45:02.231Z,47.11
2018-02-10T11:47:30.647Z,47.97
2018-02-10T11:49:59.041Z,49.37
2018-02-10T11:52:27.444Z,49.75
2018-02-10T11:54:55.882Z,48.96
2018-02-10T11:57:24.362Z,50.27
2018-02-10T11:59:52.763Z,47.83
2018-02-10T12:02:21.232Z,47.51
2018-02-10T12:04:49.640Z,46.86
2018-02-10T12:07:18.050Z,47.72
2018-02-10T12:09:46.540Z,47.17
2018-02-10T12:12:14.944Z,47.79
2018-02-10T12:14:43.348Z,48.36
2018-02-10T12:17:11.878Z,50.53
2018-02-10T12:19:40.351Z,51.00
2018-02-10T12:22:08.790Z,55.14
2018-02-10T12:24:37.210Z,55.54
2018-02-10T12:27:05.615Z,54.05
2018-02-10T12:29:34.043Z,57.79
2018-02-10T12:32:02.453Z,56.22
2018-02-10T12:34:30.915Z,58.16
2018-02-10T12:36:59.332Z,57.84
2018-02-10T12:39:27.739Z,56.94
2018-02-10T12:41:56.247Z,56.31
2018-02-10T12:44:24.655Z,57.61
2018-02-10T12:46:53.134Z,55.59
2018-02-10T12:49:37.644Z,55.77
2018-02-10T12:52:06.108Z,56.12
2018-02-10T12:54:34.516Z,56.18
2018-02-10T12:57:02.935Z,56.63
2018-02-10T12:59:31.355Z,56.26
2018-02-10T13:01:59.793Z,56.74
2018-02-10T13:04:28.275Z,55.36
2018-02-10T13:06:56.702Z,56.98
2018-02-10T13:09:25.112Z,58.73
2018-02-10T13:11:53.630Z,58.26
2018-02-10T13:14:22.052Z,56.60
2018-02-10T13:16:50.633Z,58.45
2018-02-10T13:19:19.045Z,57.45
2018-02-10T13:21:47.471Z,58.13
2018-02-10T13:24:15.878Z,58.37
2018-02-10T13:26:44.276Z,58.66
2018-02-10T13:29:12.782Z,58.12
2018-02-10T13:31:41.217Z,56.50
2018-02-10T13:34:09.697Z,57.63
2018-02-10T13:36:38.097Z,58.35
2018-02-10T13:39:06.516Z,58.72
2018-02-10T13:41:34.985Z,56.70
2018-02-10T13:44:03.533Z,55.58
2018-02-10T13:46:32.038Z,56.91
2018-02-10T13:49:00.468Z,57.05
2018-02-10T13:51:28.960Z,58.54
2018-02-10T13:53:57.459Z,60.58
2018-02-10T13:56:25.866Z,62.25
2018-02-10T13:58:54.380Z,61.05
2018-02-10T14:01:22.880Z,60.03
2018-02-10T14:03:52.275Z,59.76
2018-02-10T14:06:20.937Z,58.52
2018-02-10T14:08:49.345Z,57.75
2018-02-10T14:11:17.756Z,62.08
2018-02-10T14:13:46.181Z,60.29
2018-02-10T14:16:14.601Z,60.58
2018-02-10T14:18:43.042Z,59.59
2018-02-10T14:21:11.437Z,60.92
2018-02-10T14:23:39.890Z,61.01
2018-02-10T14:26:08.316Z,62.69
2018-02-10T14:28:36.775Z,59.74
2018-02-10T14:31:05.287Z,58.52
2018-02-10T14:33:33.675Z,58.48
2018-02-10T14:36:02.063Z,59.25
2018-02-10T14:38:30.470Z,59.18
2018-02-10T14:40:58.916Z,60.82
2018-02-10T14:43:27.323Z,61.77
2018-02-10T14:45:55.910Z,60.51
2018-02-10T14:48:24.308Z,60.29
2018-02-10T14:50:52.732Z,61.77
2018-02-10T14:53:21.146Z,62.13
2018-02-10T14:55:49.528Z,62.08
2018-02-10T14:58:18.003Z,64.17
2018-02-10T15:00:46.409Z,63.35
2018-02-10T15:03:14.820Z,62.86
2018-02-10T15:05:43.230Z,64.69
2018-02-10T15:08:11.623Z,63.69
2018-02-10T15:10:40.156Z,62.20
2018-02-10T15:13:08.544Z,64.40
2018-02-10T15:15:37.009Z,65.17
2018-02-10T15:18:05.436Z,62.40
2018-02-10T15:20:33.850Z,61.32
2018-02-10T15:23:02.290Z,62.01
2018-02-10T15:25:30.692Z,62.24
2018-02-10T15:27:59.146Z,63.87
2018-02-10T15:30:39.905Z,65.54
2018-02-10T15:33:21.001Z,65.82
2018-02-10T15:35:49.512Z,66.21
2018-02-10T15:38:18.060Z,65.11
2018-02-10T15:40:46.454Z,64.82
2018-02-10T15:43:14.887Z,66.28
2018-02-10T15:45:43.371Z,67.03
2018-02-10T15:48:11.755Z,67.77
2018-02-10T15:50:40.170Z,66.54
2018-02-10T15:53:08.677Z,65.58
2018-02-10T15:55:37.089Z,63.77
2018-02-10T15:58:05.516Z,64.09
2018-02-10T16:00:33.927Z,64.15
2018-02-10T16:03:02.354Z,65.02
2018-02-10T16:05:30.753Z,66.06
2018-02-10T16:07:59.174Z,66.57
2018-02-10T16:10:27.727Z,62.85
2018-02-10T16:12:56.132Z,63.08
2018-02-10T16:15:24.547Z,63.60
2018-02-10T16:17:52.960Z,65.90
2018-02-10T16:20:21.342Z,65.76
2018-02-10T16:22:49.974Z,62.97
2018-02-10T16:25:18.375Z,63.48
2018-02-10T16:27:46.778Z,62.58
2018-02-10T16:30:15.300Z,62.00
2018-02-10T16:32:43.698Z,63.82
2018-02-10T16:35:12.136Z,62.41
2018-02-10T16:37:40.551Z,64.00
2018-02-10T16:40:08.981Z,62.25
2018-02-10T16:42:37.373Z,61.30
2018-02-10T16:45:06.154Z,62.10
2018-02-10T16:47:34.585Z,60.59
2018-02-10T16:50:02.978Z,64.36
2018-02-10T16:52:31.375Z,62.97
2018-02-10T16:54:59.763Z,61.19
2018-02-10T16:57:28.214Z,60.45
2018-02-10T16:59:56.617Z,61.67
2018-02-10T17:02:25.328Z,62.60
2018-02-10T17:04:53.723Z,63.90
2018-02-10T17:07:22.097Z,67.09
2018-02-10T17:09:50.514Z,65.77
2018-02-10T17:12:18.918Z,65.58
2018-02-10T17:14:47.469Z,66.19
2018-02-10T17:17:15.862Z,64.63
2018-02-10T17:19:44.243Z,65.36
2018-02-10T17:22:12.679Z,64.82
2018-02-10T17:24:41.127Z,67.36
2018-02-10T17:27:09.514Z,65.81
2018-02-10T17:29:37.982Z,66.51
2018-02-10T17:32:06.395Z,65.28
2018-02-10T17:34:34.783Z,64.63
2018-02-10T17:37:03.190Z,63.11
2018-02-10T17:39:32.061Z,60.88
2018-02-10T17:42:00.450Z,61.66
2018-02-10T17:44:28.857Z,64.55
2018-02-10T17:46:57.305Z,63.22
2018-02-10T17:49:25.711Z,64.17
2018-02-10T17:51:54.194Z,65.00
2018-02-10T17:54:22.582Z,62.49
2018-02-10T17:56:51.003Z,65.83
2018-02-10T17:59:19.408Z,66.59
2018-02-10T18:01:47.912Z,65.23
2018-02-10T18:04:16.347Z,66.23
2018-02-10T18:06:44.770Z,67.95
2018-02-10T18:09:13.265Z,68.66
2018-02-10T18:11:41.676Z,67.34
2018-02-10T18:14:10.069Z,67.93
2018-02-10T18:16:38.535Z,67.09
2018-02-10T18:19:06.933Z,68.81
2018-02-10T18:21:35.412Z,67.73
2018-02-10T18:24:03.818Z,67.36
2018-02-10T18:26:32.235Z,65.67
2018-02-10T18:29:00.972Z,66.05
2018-02-10T18:31:29.362Z,66.01
2018-02-10T18:33:57.783Z,67.26
2018-02-10T18:36:26.192Z,67.05
2018-02-10T18:38:54.621Z,67.74
2018-02-10T18:41:23.061Z,70.19
2018-02-10T18:43:51.462Z,69.29
2018-02-10T18:46:19.857Z,70.45
2018-02-10T18:48:48.296Z,68.46
2018-02-10T18:51:16.706Z,70.43
2018-02-10T18:53:45.190Z,70.50
2018-02-10T18:56:13.630Z,67.93
2018-02-10T18:58:42.103Z,70.37
2018-02-10T19:01:10.565Z,70.39
2018-02-10T19:03:38.953Z,72.24
2018-02-10T19:06:07.389Z,69.26
2018-02-10T19:08:35.786Z,70.07
2018-02-10T19:11:04.234Z,69.37
2018-02-10T19:13:32.766Z,68.03
2018-02-10T19:16:01.167Z,66.88
2018-02-10T19:18:29.615Z,68.25
2018-02-10T19:20:58.053Z,67.90
2018-02-10T19:23:26.611Z,67.74
2018-02-10T19:25:55.030Z,68.31
2018-02-10T19:28:23.458Z,65.17
2018-02-10T19:30:51.969Z,64.66
2018-02-10T19:33:20.366Z,66.78
2018-02-10T19:35:48.755Z,64.17
2018-02-10T19:38:17.167Z,68.03
2018-02-10T19:40:45.806Z,65.30
2018-02-10T19:43:14.230Z,68.41
2018-02-10T19:45:42.647Z,70.37
2018-02-10T19:48:11.113Z,69.21
2018-02-10T19:50:39.515Z,67.54
2018-02-10T19:53:08.131Z,67.36
2018-02-10T19:55:36.587Z,65.86
2018-02-10T19:58:05.103Z,67.98
2018-02-10T20:00:33.501Z,70.00
2018-02-10T20:03:01.907Z,66.05
2018-02-10T20:05:30.710Z,67.10
2018-02-10T20:07:59.114Z,69.23
2018-02-10T20:10:27.528Z,70.68
2018-02-10T20:12:55.932Z,66.97
2018-02-10T20:15:24.331Z,68.11
2018-02-10T20:17:52.753Z,68.50
2018-02-10T20:20:21.171Z,68.69
2018-02-10T20:22:49.657Z,65.01
2018-02-10T20:25:18.221Z,67.91
2018-02-10T20:27:47.684Z,69.49
2018-02-10T20:30:16.162Z,67.34
2018-02-10T20:32:44.589Z,69.30
2018-02-10T20:35:13.174Z,65.77
2018-02-10T20:37:41.599Z,70.81
2018-02-10T20:40:10.008Z,67.70
2018-02-10T20:42:38.426Z,64.26
2018-02-10T20:45:06.942Z,70.34
2018-02-10T20:47:35.412Z,68.48
2018-02-10T20:50:03.803Z,70.05
2018-02-10T20:52:32.203Z,67.83
2018-02-10T20:55:00.592Z,68.03
2018-02-10T20:57:29.065Z,69.28
2018-02-10T20:59:57.594Z,65.69
2018-02-10T21:02:26.403Z,68.66
2018-02-10T21:04:54.801Z,69.04
2018-02-10T21:07:23.214Z,68.76
2018-02-10T21:09:51.604Z,67.07
2018-02-10T21:12:20.051Z,67.91
2018-02-10T21:14:48.459Z,68.84
2018-02-10T21:17:16.865Z,64.58
2018-02-10T21:19:45.269Z,67.09
2018-02-10T21:22:13.670Z,64.85
2018-02-10T21:24:42.112Z,65.45
2018-02-10T21:27:10.519Z,66.15
2018-02-10T21:29:39.455Z,66.32
2018-02-10T21:32:07.883Z,66.66
2018-02-10T21:34:36.279Z,67.71
2018-02-10T21:37:04.657Z,67.12
2018-02-10T21:39:33.081Z,65.53
2018-02-10T21:42:01.779Z,65.82
2018-02-10T21:44:30.191Z,66.58
2018-02-10T21:46:58.597Z,65.54
2018-02-10T21:49:26.969Z,65.76
2018-02-10T21:51:55.353Z,65.76
2018-02-10T21:54:23.778Z,66.12
2018-02-10T21:56:52.190Z,65.01
2018-02-10T21:59:20.667Z,65.22
2018-02-10T22:01:49.044Z,65.83
2018-02-10T22:04:17.417Z,66.56
2018-02-10T22:06:45.838Z,66.92
2018-02-10T22:09:14.204Z,67.40
2018-02-10T22:11:42.642Z,66.59
2018-02-10T22:14:11.157Z,67.21
2018-02-10T22:16:39.547Z,67.09
2018-02-10T22:19:08.084Z,66.47
2018-02-10T22:21:36.535Z,65.61
2018-02-10T22:24:04.938Z,66.37
2018-02-10T22:26:33.355Z,66.51
2018-02-10T22:31:36.373Z,63.35
2018-02-10T22:34:04.807Z,62.20
2018-02-10T22:36:33.221Z,60.04
2018-02-10T22:39:01.601Z,62.07
2018-02-10T22:41:30.024Z,58.22
2018-02-10T22:43:58.405Z,59.03
2018-02-10T22:46:26.843Z,57.48
2018-02-10T22:48:55.260Z,56.82
2018-02-10T22:51:23.745Z,57.12
2018-02-10T22:53:52.118Z,59.34
2018-02-10T22:56:20.514Z,61.43
2018-02-10T22:58:49.014Z,60.24
2018-02-10T23:01:17.434Z,59.51
2018-02-10T23:03:45.894Z,61.02
2018-02-10T23:06:14.328Z,58.97
2018-02-10T23:08:42.710Z,58.49
2018-02-10T23:11:11.122Z,62.02
2018-02-10T23:13:39.501Z,61.61
2018-02-10T23:16:07.905Z,60.34
2018-02-10T23:18:36.407Z,59.97
2018-02-10T23:21:04.804Z,61.86
2018-02-10T23:23:33.193Z,57.38
2018-02-10T23:26:01.566Z,58.26
2018-02-10T23:28:29.952Z,59.87
2018-02-10T23:30:58.328Z,59.56
2018-02-10T23:33:26.881Z,57.02
2018-02-10T23:35:55.273Z,56.29
2018-02-10T23:38:23.663Z,56.31
2018-02-10T23:40:52.043Z,56.76
2018-02-10T23:43:20.471Z,53.28
2018-02-10T23:45:48.872Z,56.43
2018-02-10T23:48:17.259Z,55.63
2018-02-10T23:50:45.701Z,53.76
2018-02-10T23:53:14.079Z,56.17
2018-02-10T23:55:42.450Z,58.09
2018-02-10T23:58:10.934Z,57.89
